sensor_id;sensor_type;location;lat;lon;timestamp;pressure;altitude;pressure_sealevel;temperature;humidity
25498;BME280;13406;53.380;7.226;2024-03-06T00:02:03;102337.72;;;4.61;100.00
25498;BME280;13406;53.380;7.226;2024-03-06T00:04:29;102357.88;;;4.74;100.00
25498;BME280;13406;53.380;7.226;2024-03-06T00:06:55;102361.63;;;4.72;100.00
25498;BME280;13406;53.380;7.226;2024-03-06T00:09:21;102377.91;;;4.79;100.00
25498;BME280;13406;53.380;7.226;2024-03-06T00:11:46;102337.34;;;4.54;100.00
25498;BME280;13406;53.380;7.226;2024-03-06T00:14:14;102368.34;;;4.87;100.00
25498;BME280;13406;53.380;7.226;2024-03-06T00:16:40;102344.53;;;4.86;100.00
25498;BME280;13406;53.380;7.226;2024-03-06T00:19:05;102347.00;;;4.78;100.00
25498;BME280;13406;53.380;7.226;2024-03-06T00:21:30;102310.06;;;4.41;100.00
25498;BME280;13406;53.380;7.226;2024-03-06T00:23:56;102405.91;;;4.94;100.00
25498;BME280;13406;53.380;7.226;2024-03-06T00:26:22;102378.22;;;4.96;100.00
25498;BME280;13406;53.380;7.226;2024-03-06T00:28:47;102359.38;;;4.88;100.00
25498;BME280;13406;53.380;7.226;2024-03-06T00:31:13;102288.06;;;4.61;100.00
25498;BME280;13406;53.380;7.226;2024-03-06T00:33:39;102350.47;;;4.89;100.00
25498;BME280;13406;53.380;7.226;2024-03-06T00:36:06;102295.78;;;4.53;100.00
25498;BME280;13406;53.380;7.226;2024-03-06T00:38:33;102263.25;;;4.28;100.00
25498;BME280;13406;53.380;7.226;2024-03-06T00:40:59;102283.72;;;4.60;100.00
25498;BME280;13406;53.380;7.226;2024-03-06T00:43:24;102303.94;;;4.84;100.00
25498;BME280;13406;53.380;7.226;2024-03-06T00:45:52;102324.25;;;4.85;100.00
25498;BME280;13406;53.380;7.226;2024-03-06T00:48:17;102335.59;;;4.87;100.00
25498;BME280;13406;53.380;7.226;2024-03-06T00:50:45;102325.84;;;4.76;100.00
25498;BME280;13406;53.380;7.226;2024-03-06T00:53:10;102307.41;;;4.52;100.00
25498;BME280;13406;53.380;7.226;2024-03-06T00:55:36;102325.63;;;4.57;100.00
25498;BME280;13406;53.380;7.226;2024-03-06T00:58:02;102355.44;;;4.71;100.00
25498;BME280;13406;53.380;7.226;2024-03-06T01:00:27;102384.56;;;4.84;100.00
25498;BME280;13406;53.380;7.226;2024-03-06T01:02:53;102340.03;;;4.43;100.00
25498;BME280;13406;53.380;7.226;2024-03-06T01:05:18;102336.75;;;4.39;100.00
25498;BME280;13406;53.380;7.226;2024-03-06T01:07:43;102382.75;;;4.62;100.00
25498;BME280;13406;53.380;7.226;2024-03-06T01:10:09;102402.34;;;4.72;100.00
25498;BME280;13406;53.380;7.226;2024-03-06T01:12:35;102398.94;;;4.70;100.00
25498;BME280;13406;53.380;7.226;2024-03-06T01:15:01;102399.19;;;4.67;100.00
25498;BME280;13406;53.380;7.226;2024-03-06T01:17:28;102417.44;;;4.83;100.00
25498;BME280;13406;53.380;7.226;2024-03-06T01:19:53;102380.00;;;4.52;100.00
25498;BME280;13406;53.380;7.226;2024-03-06T01:22:19;102445.81;;;4.83;100.00
25498;BME280;13406;53.380;7.226;2024-03-06T01:24:44;102407.06;;;4.58;100.00
25498;BME280;13406;53.380;7.226;2024-03-06T01:27:10;102468.66;;;4.85;100.00
25498;BME280;13406;53.380;7.226;2024-03-06T01:29:35;102429.88;;;4.60;100.00
25498;BME280;13406;53.380;7.226;2024-03-06T01:32:04;102491.88;;;4.83;100.00
25498;BME280;13406;53.380;7.226;2024-03-06T01:34:30;102504.09;;;4.74;100.00
25498;BME280;13406;53.380;7.226;2024-03-06T01:36:55;102515.41;;;4.76;100.00
25498;BME280;13406;53.380;7.226;2024-03-06T01:39:21;102521.34;;;4.80;100.00
25498;BME280;13406;53.380;7.226;2024-03-06T01:41:47;102469.75;;;4.49;100.00
25498;BME280;13406;53.380;7.226;2024-03-06T01:44:14;102465.63;;;4.56;100.00
25498;BME280;13406;53.380;7.226;2024-03-06T01:46:39;102454.72;;;4.37;100.00
25498;BME280;13406;53.380;7.226;2024-03-06T01:49:05;102496.09;;;4.63;100.00
25498;BME280;13406;53.380;7.226;2024-03-06T01:51:31;102528.72;;;4.88;100.00
25498;BME280;13406;53.380;7.226;2024-03-06T01:53:57;102533.06;;;4.78;100.00
25498;BME280;13406;53.380;7.226;2024-03-06T01:56:23;102557.44;;;4.71;100.00
25498;BME280;13406;53.380;7.226;2024-03-06T01:58:49;102460.03;;;4.25;100.00
25498;BME280;13406;53.380;7.226;2024-03-06T02:01:16;102511.41;;;4.48;100.00
25498;BME280;13406;53.380;7.226;2024-03-06T02:03:43;102456.88;;;4.20;100.00
25498;BME280;13406;53.380;7.226;2024-03-06T02:06:10;102516.22;;;4.43;100.00
25498;BME280;13406;53.380;7.226;2024-03-06T02:08:36;102545.50;;;4.55;100.00
25498;BME280;13406;53.380;7.226;2024-03-06T02:11:01;102541.28;;;4.63;100.00
25498;BME280;13406;53.380;7.226;2024-03-06T02:13:29;102558.44;;;4.82;100.00
25498;BME280;13406;53.380;7.226;2024-03-06T02:15:54;102573.31;;;4.84;100.00
25498;BME280;13406;53.380;7.226;2024-03-06T02:18:20;102549.25;;;4.86;100.00
25498;BME280;13406;53.380;7.226;2024-03-06T02:20:46;102535.97;;;4.74;100.00
25498;BME280;13406;53.380;7.226;2024-03-06T02:23:12;102459.34;;;4.35;100.00
25498;BME280;13406;53.380;7.226;2024-03-06T02:25:40;102526.53;;;4.82;100.00
25498;BME280;13406;53.380;7.226;2024-03-06T02:28:05;102449.66;;;4.22;100.00
25498;BME280;13406;53.380;7.226;2024-03-06T02:30:33;102512.41;;;4.70;100.00
25498;BME280;13406;53.380;7.226;2024-03-06T02:33:02;102554.47;;;4.98;100.00
25498;BME280;13406;53.380;7.226;2024-03-06T02:35:31;102548.56;;;4.84;100.00
25498;BME280;13406;53.380;7.226;2024-03-06T02:37:59;102564.50;;;4.84;100.00
25498;BME280;13406;53.380;7.226;2024-03-06T02:40:25;102566.75;;;4.77;100.00
25498;BME280;13406;53.380;7.226;2024-03-06T02:42:50;102568.59;;;4.76;100.00
25498;BME280;13406;53.380;7.226;2024-03-06T02:45:16;102584.81;;;4.85;100.00
25498;BME280;13406;53.380;7.226;2024-03-06T02:47:41;102564.97;;;4.78;100.00
25498;BME280;13406;53.380;7.226;2024-03-06T02:50:07;102587.59;;;4.83;100.00
25498;BME280;13406;53.380;7.226;2024-03-06T02:52:33;102586.13;;;4.79;100.00
25498;BME280;13406;53.380;7.226;2024-03-06T02:54:58;102597.59;;;4.80;100.00
25498;BME280;13406;53.380;7.226;2024-03-06T02:57:28;102460.34;;;4.10;100.00
25498;BME280;13406;53.380;7.226;2024-03-06T02:59:56;102595.66;;;4.82;100.00
25498;BME280;13406;53.380;7.226;2024-03-06T03:02:21;102602.44;;;4.86;100.00
25498;BME280;13406;53.380;7.226;2024-03-06T03:04:47;102558.28;;;4.49;100.00
25498;BME280;13406;53.380;7.226;2024-03-06T03:07:12;102625.88;;;4.81;100.00
25498;BME280;13406;53.380;7.226;2024-03-06T03:09:38;102582.31;;;4.59;100.00
25498;BME280;13406;53.380;7.226;2024-03-06T03:12:04;102543.09;;;4.27;100.00
25498;BME280;13406;53.380;7.226;2024-03-06T03:14:29;102575.78;;;4.52;100.00
25498;BME280;13406;53.380;7.226;2024-03-06T03:16:54;102574.09;;;4.51;100.00
25498;BME280;13406;53.380;7.226;2024-03-06T03:19:20;102624.03;;;4.70;100.00
25498;BME280;13406;53.380;7.226;2024-03-06T03:21:45;102561.81;;;4.26;100.00
25498;BME280;13406;53.380;7.226;2024-03-06T03:24:11;102621.44;;;4.46;100.00
25498;BME280;13406;53.380;7.226;2024-03-06T03:26:36;102680.47;;;4.73;100.00
25498;BME280;13406;53.380;7.226;2024-03-06T03:29:02;102671.97;;;4.57;100.00
25498;BME280;13406;53.380;7.226;2024-03-06T03:31:28;102704.53;;;4.72;100.00
25498;BME280;13406;53.380;7.226;2024-03-06T03:33:54;102704.63;;;4.70;100.00
25498;BME280;13406;53.380;7.226;2024-03-06T03:36:19;102708.25;;;4.69;100.00
25498;BME280;13406;53.380;7.226;2024-03-06T03:38:44;102692.25;;;4.58;100.00
25498;BME280;13406;53.380;7.226;2024-03-06T03:41:11;102688.47;;;4.49;100.00
25498;BME280;13406;53.380;7.226;2024-03-06T03:43:41;102718.94;;;4.81;100.00
25498;BME280;13406;53.380;7.226;2024-03-06T03:46:07;102708.66;;;4.76;100.00
25498;BME280;13406;53.380;7.226;2024-03-06T03:48:34;102713.16;;;4.87;100.00
25498;BME280;13406;53.380;7.226;2024-03-06T03:51:05;102711.69;;;4.83;100.00
25498;BME280;13406;53.380;7.226;2024-03-06T03:53:32;102718.72;;;4.84;100.00
25498;BME280;13406;53.380;7.226;2024-03-06T03:55:58;102643.94;;;4.29;100.00
25498;BME280;13406;53.380;7.226;2024-03-06T03:58:24;102645.34;;;4.46;100.00
25498;BME280;13406;53.380;7.226;2024-03-06T04:00:49;102666.00;;;4.53;100.00
25498;BME280;13406;53.380;7.226;2024-03-06T04:03:21;102532.44;;;3.44;100.00
25498;BME280;13406;53.380;7.226;2024-03-06T04:05:49;102632.13;;;4.33;100.00
25498;BME280;13406;53.380;7.226;2024-03-06T04:08:15;102595.69;;;4.11;100.00
25498;BME280;13406;53.380;7.226;2024-03-06T04:10:43;102694.50;;;4.75;100.00
25498;BME280;13406;53.380;7.226;2024-03-06T04:13:12;102691.28;;;4.83;100.00
25498;BME280;13406;53.380;7.226;2024-03-06T04:15:38;102672.03;;;4.80;100.00
25498;BME280;13406;53.380;7.226;2024-03-06T04:18:03;102668.16;;;4.72;100.00
25498;BME280;13406;53.380;7.226;2024-03-06T04:20:31;102638.88;;;4.61;100.00
25498;BME280;13406;53.380;7.226;2024-03-06T04:22:56;102662.88;;;4.84;100.00
25498;BME280;13406;53.380;7.226;2024-03-06T04:25:22;102575.94;;;4.26;100.00
25498;BME280;13406;53.380;7.226;2024-03-06T04:27:49;102638.13;;;4.59;100.00
25498;BME280;13406;53.380;7.226;2024-03-06T04:30:15;102639.16;;;4.69;100.00
25498;BME280;13406;53.380;7.226;2024-03-06T04:32:41;102579.03;;;4.44;100.00
25498;BME280;13406;53.380;7.226;2024-03-06T04:35:06;102616.91;;;4.70;100.00
25498;BME280;13406;53.380;7.226;2024-03-06T04:37:34;102599.72;;;4.52;100.00
25498;BME280;13406;53.380;7.226;2024-03-06T04:40:00;102568.03;;;4.38;100.00
25498;BME280;13406;53.380;7.226;2024-03-06T04:42:25;102604.75;;;4.44;100.00
25498;BME280;13406;53.380;7.226;2024-03-06T04:44:51;102607.91;;;4.49;100.00
25498;BME280;13406;53.380;7.226;2024-03-06T04:47:16;102553.69;;;4.16;100.00
25498;BME280;13406;53.380;7.226;2024-03-06T04:49:42;102611.28;;;4.40;100.00
25498;BME280;13406;53.380;7.226;2024-03-06T04:52:07;102631.00;;;4.60;100.00
25498;BME280;13406;53.380;7.226;2024-03-06T04:54:34;102645.53;;;4.67;100.00
25498;BME280;13406;53.380;7.226;2024-03-06T04:57:00;102658.13;;;4.76;100.00
25498;BME280;13406;53.380;7.226;2024-03-06T04:59:25;102652.81;;;4.76;100.00
25498;BME280;13406;53.380;7.226;2024-03-06T05:01:52;102671.94;;;4.81;100.00
25498;BME280;13406;53.380;7.226;2024-03-06T05:04:17;102665.13;;;4.77;100.00
25498;BME280;13406;53.380;7.226;2024-03-06T05:06:43;102655.72;;;4.73;100.00
25498;BME280;13406;53.380;7.226;2024-03-06T05:09:08;102646.00;;;4.61;100.00
25498;BME280;13406;53.380;7.226;2024-03-06T05:11:37;102635.78;;;4.43;100.00
25498;BME280;13406;53.380;7.226;2024-03-06T05:14:03;102654.94;;;4.60;100.00
25498;BME280;13406;53.380;7.226;2024-03-06T05:16:29;102644.75;;;4.53;100.00
25498;BME280;13406;53.380;7.226;2024-03-06T05:18:54;102538.28;;;3.97;100.00
25498;BME280;13406;53.380;7.226;2024-03-06T05:21:21;102601.06;;;4.22;100.00
25498;BME280;13406;53.380;7.226;2024-03-06T05:23:48;102577.03;;;4.00;100.00
25498;BME280;13406;53.380;7.226;2024-03-06T05:26:14;102655.84;;;4.47;100.00
25498;BME280;13406;53.380;7.226;2024-03-06T05:28:40;102669.13;;;4.47;100.00
25498;BME280;13406;53.380;7.226;2024-03-06T05:31:18;102708.50;;;4.66;100.00
25498;BME280;13406;53.380;7.226;2024-03-06T05:33:47;102716.75;;;4.74;100.00
25498;BME280;13406;53.380;7.226;2024-03-06T05:36:12;102725.28;;;4.67;100.00
25498;BME280;13406;53.380;7.226;2024-03-06T05:38:43;102683.78;;;4.53;100.00
25498;BME280;13406;53.380;7.226;2024-03-06T05:41:08;102723.69;;;4.64;100.00
25498;BME280;13406;53.380;7.226;2024-03-06T05:43:34;102641.84;;;4.21;100.00
25498;BME280;13406;53.380;7.226;2024-03-06T05:45:59;102716.78;;;4.62;100.00
25498;BME280;13406;53.380;7.226;2024-03-06T05:48:26;102719.34;;;4.63;100.00
25498;BME280;13406;53.380;7.226;2024-03-06T05:50:52;102708.97;;;4.71;100.00
25498;BME280;13406;53.380;7.226;2024-03-06T05:53:18;102696.56;;;4.72;100.00
25498;BME280;13406;53.380;7.226;2024-03-06T05:55:43;102655.00;;;4.47;100.00
25498;BME280;13406;53.380;7.226;2024-03-06T05:58:09;102656.38;;;4.52;100.00
25498;BME280;13406;53.380;7.226;2024-03-06T06:00:34;102680.44;;;4.62;100.00
25498;BME280;13406;53.380;7.226;2024-03-06T06:03:00;102641.22;;;4.42;100.00
25498;BME280;13406;53.380;7.226;2024-03-06T06:05:25;102597.75;;;4.19;100.00
25498;BME280;13406;53.380;7.226;2024-03-06T06:07:51;102660.00;;;4.63;100.00
25498;BME280;13406;53.380;7.226;2024-03-06T06:10:17;102646.94;;;4.60;100.00
25498;BME280;13406;53.380;7.226;2024-03-06T06:12:42;102654.44;;;4.55;100.00
25498;BME280;13406;53.380;7.226;2024-03-06T06:15:08;102658.84;;;4.67;100.00
25498;BME280;13406;53.380;7.226;2024-03-06T06:17:34;102667.28;;;4.61;100.00
25498;BME280;13406;53.380;7.226;2024-03-06T06:20:00;102649.28;;;4.64;100.00
25498;BME280;13406;53.380;7.226;2024-03-06T06:22:28;102643.13;;;4.64;100.00
25498;BME280;13406;53.380;7.226;2024-03-06T06:24:54;102629.59;;;4.67;100.00
25498;BME280;13406;53.380;7.226;2024-03-06T06:27:21;102590.53;;;4.56;100.00
25498;BME280;13406;53.380;7.226;2024-03-06T06:29:46;102598.63;;;4.55;100.00
25498;BME280;13406;53.380;7.226;2024-03-06T06:32:12;102588.47;;;4.48;100.00
25498;BME280;13406;53.380;7.226;2024-03-06T06:34:37;102634.06;;;4.66;100.00
25498;BME280;13406;53.380;7.226;2024-03-06T06:37:03;102632.38;;;4.76;100.00
25498;BME280;13406;53.380;7.226;2024-03-06T06:39:28;102615.09;;;4.71;100.00
25498;BME280;13406;53.380;7.226;2024-03-06T06:41:53;102617.66;;;4.72;100.00
25498;BME280;13406;53.380;7.226;2024-03-06T06:44:19;102587.03;;;4.56;100.00
25498;BME280;13406;53.380;7.226;2024-03-06T06:46:44;102612.34;;;4.72;100.00
25498;BME280;13406;53.380;7.226;2024-03-06T06:49:10;102614.63;;;4.66;100.00
25498;BME280;13406;53.380;7.226;2024-03-06T06:51:35;102573.97;;;4.52;100.00
25498;BME280;13406;53.380;7.226;2024-03-06T06:54:01;102640.78;;;4.83;100.00
25498;BME280;13406;53.380;7.226;2024-03-06T06:56:27;102624.78;;;4.72;100.00
25498;BME280;13406;53.380;7.226;2024-03-06T06:58:52;102628.50;;;4.69;100.00
25498;BME280;13406;53.380;7.226;2024-03-06T07:01:18;102666.34;;;4.73;100.00
25498;BME280;13406;53.380;7.226;2024-03-06T07:03:44;102622.75;;;4.40;100.00
25498;BME280;13406;53.380;7.226;2024-03-06T07:06:09;102674.72;;;4.56;100.00
25498;BME280;13406;53.380;7.226;2024-03-06T07:08:36;102708.78;;;4.74;100.00
25498;BME280;13406;53.380;7.226;2024-03-06T07:11:02;102697.06;;;4.53;100.00
25498;BME280;13406;53.380;7.226;2024-03-06T07:13:28;102719.59;;;4.60;100.00
25498;BME280;13406;53.380;7.226;2024-03-06T07:15:53;102722.50;;;4.68;100.00
25498;BME280;13406;53.380;7.226;2024-03-06T07:18:18;102686.78;;;4.48;100.00
25498;BME280;13406;53.380;7.226;2024-03-06T07:20:44;102631.13;;;4.23;100.00
25498;BME280;13406;53.380;7.226;2024-03-06T07:23:09;102663.91;;;4.35;100.00
25498;BME280;13406;53.380;7.226;2024-03-06T07:25:35;102609.53;;;4.03;100.00
25498;BME280;13406;53.380;7.226;2024-03-06T07:28:01;102730.44;;;4.81;100.00
25498;BME280;13406;53.380;7.226;2024-03-06T07:30:27;102707.66;;;4.66;100.00
25498;BME280;13406;53.380;7.226;2024-03-06T07:32:54;102710.31;;;4.66;100.00
25498;BME280;13406;53.380;7.226;2024-03-06T07:35:20;102661.63;;;4.41;100.00
25498;BME280;13406;53.380;7.226;2024-03-06T07:37:45;102692.09;;;4.72;100.00
25498;BME280;13406;53.380;7.226;2024-03-06T07:40:12;102693.66;;;4.75;100.00
25498;BME280;13406;53.380;7.226;2024-03-06T07:42:37;102718.03;;;4.93;100.00
25498;BME280;13406;53.380;7.226;2024-03-06T07:45:04;102698.84;;;4.76;100.00
25498;BME280;13406;53.380;7.226;2024-03-06T07:47:30;102718.13;;;4.91;100.00
25498;BME280;13406;53.380;7.226;2024-03-06T07:49:55;102690.25;;;4.73;100.00
25498;BME280;13406;53.380;7.226;2024-03-06T07:52:21;102634.50;;;4.49;100.00
25498;BME280;13406;53.380;7.226;2024-03-06T07:54:46;102725.06;;;5.05;100.00
25498;BME280;13406;53.380;7.226;2024-03-06T07:57:12;102719.50;;;5.08;100.00
25498;BME280;13406;53.380;7.226;2024-03-06T07:59:37;102707.66;;;5.01;100.00
25498;BME280;13406;53.380;7.226;2024-03-06T08:02:03;102726.91;;;5.16;100.00
25498;BME280;13406;53.380;7.226;2024-03-06T08:04:30;102710.06;;;5.04;100.00
25498;BME280;13406;53.380;7.226;2024-03-06T08:06:55;102710.91;;;5.05;100.00
25498;BME280;13406;53.380;7.226;2024-03-06T08:09:21;102705.59;;;5.05;100.00
25498;BME280;13406;53.380;7.226;2024-03-06T08:11:46;102710.44;;;5.11;100.00
25498;BME280;13406;53.380;7.226;2024-03-06T08:14:11;102703.44;;;5.10;100.00
25498;BME280;13406;53.380;7.226;2024-03-06T08:16:39;102658.50;;;4.83;100.00
25498;BME280;13406;53.380;7.226;2024-03-06T08:19:05;102698.09;;;4.98;100.00
25498;BME280;13406;53.380;7.226;2024-03-06T08:21:30;102650.44;;;4.84;100.00
25498;BME280;13406;53.380;7.226;2024-03-06T08:23:56;102555.56;;;5.18;100.00
25498;BME280;13406;53.380;7.226;2024-03-06T08:26:22;102532.84;;;4.92;100.00
25498;BME280;13406;53.380;7.226;2024-03-06T08:28:48;102566.91;;;5.20;100.00
25498;BME280;13406;53.380;7.226;2024-03-06T08:31:14;102557.16;;;5.32;100.00
25498;BME280;13406;53.380;7.226;2024-03-06T08:33:39;102501.78;;;4.92;100.00
25498;BME280;13406;53.380;7.226;2024-03-06T08:36:05;102519.53;;;5.14;100.00
25498;BME280;13406;53.380;7.226;2024-03-06T08:38:30;102534.78;;;5.24;100.00
25498;BME280;13406;53.380;7.226;2024-03-06T08:40:56;102475.94;;;4.83;100.00
25498;BME280;13406;53.380;7.226;2024-03-06T08:43:21;102522.31;;;5.13;100.00
25498;BME280;13406;53.380;7.226;2024-03-06T08:45:47;102497.41;;;5.03;100.00
25498;BME280;13406;53.380;7.226;2024-03-06T08:48:12;102510.84;;;5.24;100.00
25498;BME280;13406;53.380;7.226;2024-03-06T08:50:38;102533.03;;;5.45;100.00
25498;BME280;13406;53.380;7.226;2024-03-06T08:53:04;102525.28;;;5.53;100.00
25498;BME280;13406;53.380;7.226;2024-03-06T08:55:29;102474.28;;;5.26;100.00
25498;BME280;13406;53.380;7.226;2024-03-06T08:57:54;102522.13;;;5.59;100.00
25498;BME280;13406;53.380;7.226;2024-03-06T09:00:20;102441.19;;;5.18;100.00
25498;BME280;13406;53.380;7.226;2024-03-06T09:02:46;102483.28;;;5.57;100.00
25498;BME280;13406;53.380;7.226;2024-03-06T09:05:11;102509.59;;;5.82;100.00
25498;BME280;13406;53.380;7.226;2024-03-06T09:07:38;102485.91;;;5.68;100.00
25498;BME280;13406;53.380;7.226;2024-03-06T09:10:06;102513.47;;;5.78;100.00
25498;BME280;13406;53.380;7.226;2024-03-06T09:12:32;102512.88;;;5.75;100.00
25498;BME280;13406;53.380;7.226;2024-03-06T09:14:58;102483.59;;;5.75;100.00
25498;BME280;13406;53.380;7.226;2024-03-06T09:17:25;102483.06;;;5.81;100.00
25498;BME280;13406;53.380;7.226;2024-03-06T09:19:51;102478.59;;;5.81;100.00
25498;BME280;13406;53.380;7.226;2024-03-06T09:22:17;102477.75;;;5.81;100.00
25498;BME280;13406;53.380;7.226;2024-03-06T09:24:42;102471.84;;;5.77;100.00
25498;BME280;13406;53.380;7.226;2024-03-06T09:27:08;102465.09;;;5.73;100.00
25498;BME280;13406;53.380;7.226;2024-03-06T09:29:33;102427.28;;;5.58;100.00
25498;BME280;13406;53.380;7.226;2024-03-06T09:31:59;102460.81;;;5.93;100.00
25498;BME280;13406;53.380;7.226;2024-03-06T09:34:24;102438.25;;;5.97;100.00
25498;BME280;13406;53.380;7.226;2024-03-06T09:36:50;102494.28;;;6.28;100.00
25498;BME280;13406;53.380;7.226;2024-03-06T09:39:19;102490.41;;;6.42;100.00
25498;BME280;13406;53.380;7.226;2024-03-06T09:41:53;102479.09;;;6.49;100.00
25498;BME280;13406;53.380;7.226;2024-03-06T09:44:20;102450.69;;;6.39;100.00
25498;BME280;13406;53.380;7.226;2024-03-06T09:46:47;102463.59;;;6.64;100.00
25498;BME280;13406;53.380;7.226;2024-03-06T09:49:18;102428.19;;;6.52;100.00
25498;BME280;13406;53.380;7.226;2024-03-06T09:51:47;102423.44;;;6.56;100.00
25498;BME280;13406;53.380;7.226;2024-03-06T09:54:19;102437.31;;;6.81;100.00
25498;BME280;13406;53.380;7.226;2024-03-06T09:56:45;102415.03;;;6.61;100.00
25498;BME280;13406;53.380;7.226;2024-03-06T09:59:11;102392.72;;;6.62;100.00
25498;BME280;13406;53.380;7.226;2024-03-06T10:01:50;102240.88;;;5.49;100.00
25498;BME280;13406;53.380;7.226;2024-03-06T10:04:26;102432.59;;;7.04;100.00
25498;BME280;13406;53.380;7.226;2024-03-06T10:06:56;102373.38;;;6.60;100.00
25498;BME280;13406;53.380;7.226;2024-03-06T10:09:21;102416.25;;;6.87;100.00
25498;BME280;13406;53.380;7.226;2024-03-06T10:11:47;102392.34;;;6.66;100.00
25498;BME280;13406;53.380;7.226;2024-03-06T10:14:13;102413.16;;;6.82;100.00
25498;BME280;13406;53.380;7.226;2024-03-06T10:16:58;102451.53;;;7.00;100.00
25498;BME280;13406;53.380;7.226;2024-03-06T10:19:25;102434.94;;;6.97;100.00
25498;BME280;13406;53.380;7.226;2024-03-06T10:21:53;102461.63;;;6.97;100.00
25498;BME280;13406;53.380;7.226;2024-03-06T10:24:19;102460.34;;;6.91;100.00
25498;BME280;13406;53.380;7.226;2024-03-06T10:26:46;102393.25;;;6.46;100.00
25498;BME280;13406;53.380;7.226;2024-03-06T10:29:18;102458.09;;;6.87;100.00
25498;BME280;13406;53.380;7.226;2024-03-06T10:31:54;102448.16;;;6.98;100.00
25498;BME280;13406;53.380;7.226;2024-03-06T10:34:20;102462.63;;;7.06;100.00
25498;BME280;13406;53.380;7.226;2024-03-06T10:37:00;102473.63;;;7.12;100.00
25498;BME280;13406;53.380;7.226;2024-03-06T10:39:27;102375.59;;;6.54;100.00
25498;BME280;13406;53.380;7.226;2024-03-06T10:41:54;102480.53;;;7.34;100.00
25498;BME280;13406;53.380;7.226;2024-03-06T10:44:26;102085.13;;;4.83;100.00
25498;BME280;13406;53.380;7.226;2024-03-06T10:46:59;102086.91;;;4.83;100.00
25498;BME280;13406;53.380;7.226;2024-03-06T10:49:26;101996.00;;;4.37;100.00
25498;BME280;13406;53.380;7.226;2024-03-06T10:51:57;102071.03;;;4.50;100.00
25498;BME280;13406;53.380;7.226;2024-03-06T10:54:23;102023.72;;;4.44;100.00
25498;BME280;13406;53.380;7.226;2024-03-06T10:56:54;102112.28;;;4.87;100.00
25498;BME280;13406;53.380;7.226;2024-03-06T10:59:20;102363.81;;;6.26;100.00
25498;BME280;13406;53.380;7.226;2024-03-06T11:01:47;102327.53;;;6.04;100.00
25498;BME280;13406;53.380;7.226;2024-03-06T11:04:12;101973.50;;;4.41;100.00
25498;BME280;13406;53.380;7.226;2024-03-06T11:06:38;102543.56;;;7.56;100.00
25498;BME280;13406;53.380;7.226;2024-03-06T11:09:04;102057.09;;;4.79;100.00
25498;BME280;13406;53.380;7.226;2024-03-06T11:11:31;102088.06;;;5.11;100.00
25498;BME280;13406;53.380;7.226;2024-03-06T11:14:01;102003.31;;;4.66;100.00
25498;BME280;13406;53.380;7.226;2024-03-06T11:16:32;102217.22;;;5.76;100.00
25498;BME280;13406;53.380;7.226;2024-03-06T11:19:17;102095.38;;;5.18;100.00
25498;BME280;13406;53.380;7.226;2024-03-06T11:21:46;102431.69;;;7.63;100.00
25498;BME280;13406;53.380;7.226;2024-03-06T11:24:19;102468.75;;;8.24;100.00
25498;BME280;13406;53.380;7.226;2024-03-06T11:26:47;102222.50;;;7.15;100.00
25498;BME280;13406;53.380;7.226;2024-03-06T11:29:17;101982.13;;;6.05;100.00
25498;BME280;13406;53.380;7.226;2024-03-06T11:32:00;102090.72;;;6.89;100.00
25498;BME280;13406;53.380;7.226;2024-03-06T11:34:26;101989.97;;;6.73;100.00
25498;BME280;13406;53.380;7.226;2024-03-06T11:36:57;102090.34;;;7.48;100.00
25498;BME280;13406;53.380;7.226;2024-03-06T11:39:22;102394.38;;;9.12;100.00
25498;BME280;13406;53.380;7.226;2024-03-06T11:41:49;101908.13;;;6.46;100.00
25498;BME280;13406;53.380;7.226;2024-03-06T11:44:17;101950.78;;;6.83;100.00
25498;BME280;13406;53.380;7.226;2024-03-06T11:46:46;102240.25;;;8.56;100.00
25498;BME280;13406;53.380;7.226;2024-03-06T11:49:21;102199.63;;;7.97;100.00
25498;BME280;13406;53.380;7.226;2024-03-06T11:51:50;102149.84;;;7.96;100.00
25498;BME280;13406;53.380;7.226;2024-03-06T11:54:16;102064.75;;;7.56;100.00
25498;BME280;13406;53.380;7.226;2024-03-06T11:56:48;102156.19;;;7.67;100.00
25498;BME280;13406;53.380;7.226;2024-03-06T11:59:15;101958.97;;;6.62;100.00
25498;BME280;13406;53.380;7.226;2024-03-06T12:01:41;101998.50;;;7.41;100.00
25498;BME280;13406;53.380;7.226;2024-03-06T12:04:07;102109.91;;;8.40;100.00
25498;BME280;13406;53.380;7.226;2024-03-06T12:06:33;101852.91;;;6.66;100.00
25498;BME280;13406;53.380;7.226;2024-03-06T12:08:59;101990.53;;;7.95;100.00
25498;BME280;13406;53.380;7.226;2024-03-06T12:11:25;102287.81;;;9.86;100.00
25498;BME280;13406;53.380;7.226;2024-03-06T12:13:51;101825.06;;;7.14;100.00
25498;BME280;13406;53.380;7.226;2024-03-06T12:16:17;101925.00;;;7.29;100.00
25498;BME280;13406;53.380;7.226;2024-03-06T12:18:43;102014.19;;;8.44;100.00
25498;BME280;13406;53.380;7.226;2024-03-06T12:21:10;101845.38;;;7.24;100.00
25498;BME280;13406;53.380;7.226;2024-03-06T12:23:36;102044.50;;;8.17;100.00
25498;BME280;13406;53.380;7.226;2024-03-06T12:26:10;102024.88;;;8.44;100.00
25498;BME280;13406;53.380;7.226;2024-03-06T12:28:39;101857.16;;;7.76;100.00
25498;BME280;13406;53.380;7.226;2024-03-06T12:31:08;102043.03;;;8.84;100.00
25498;BME280;13406;53.380;7.226;2024-03-06T12:33:34;101991.81;;;8.71;100.00
25498;BME280;13406;53.380;7.226;2024-03-06T12:36:05;101868.97;;;8.17;100.00
25498;BME280;13406;53.380;7.226;2024-03-06T12:38:32;101862.53;;;8.02;100.00
25498;BME280;13406;53.380;7.226;2024-03-06T12:40:57;102074.66;;;9.15;100.00
25498;BME280;13406;53.380;7.226;2024-03-06T12:43:24;102004.91;;;8.56;100.00
25498;BME280;13406;53.380;7.226;2024-03-06T12:45:50;102027.50;;;9.22;100.00
25498;BME280;13406;53.380;7.226;2024-03-06T12:48:15;102238.06;;;10.84;100.00